KBDL

Bradley International Airport

Windsor Locks, Connecticut, USA
METAR KBDL 232151Z 22004KT 2SM -RA BR SCT004 OVC015 02/01 A3038 RMK AO2 SFC VIS 2 1/2 SLP289 P0004 T00220011
Observed Flight Rules
Feb-23 @ 21:51 UTC (47 minutes ago) Instrument Flight Rules
Wind Visibility Clouds Conditions
220° at 4 knots 2 miles
  • Scattered at 400' AGL
  • Overcast at 1,500' AGL
  • Light Rain
  • Mist
Temperatures Readings Precipitation
Current 2°C / 36°F
Dewpoint 1°C / 34°F
Humidity 93%
Altimeter 30.38" Hg
Pressure 1028.9 hPa
Elevation 60
Current Rain 0.04
METAR KBDL 232151Z 22004KT 2SM -RA BR SCT004 OVC015 02/01 A3038 RMK AO2 SFC VIS 2 1/2 SLP289 P0004 T00220011
Observed Flight Rules
Feb-23 @ 21:51 UTC
(47 minutes ago)
IFR
Wind Visibility
220° at 4 knots 2 miles
Clouds
  • Scattered at 400' AGL
  • Overcast at 1,500' AGL
Conditions
  • Light Rain
  • Mist
Temperature Dewpoint
2°C / 36°F 1°C / 34°F
Humidity Altimeter Pressure
93% 30.38" Hg 1028.9 hPa
Current Rain
0.04